Time;durP1;ratioP1;P1;durP2;ratioP2;P2;SDS_P1;SDS_P2;PMS_P1;PMS_P2;Temp;Humidity;BMP_temperature;BMP_pressure;BME280_temperature;BME280_humidity;BME280_pressure;Samples;Min_cycle;Max_cycle;Signal;HPM_P1;HPM_P2
2022/07/22 00:01:21;;;;;;;3.10;3.10;;;25.20;66.20;;;;;;5109468;27;44046;-71
2022/07/22 00:03:51;;;;;;;2.90;2.90;;;25.10;66.50;;;;;;5109566;27;43401;-70
2022/07/22 00:06:19;;;;;;;2.75;2.75;;;25.10;66.80;;;;;;5109819;27;43882;-69
2022/07/22 00:08:47;;;;;;;2.60;2.60;;;25.10;67.00;;;;;;5109985;27;43373;-71
2022/07/22 00:11:15;;;;;;;2.70;2.70;;;25.00;67.10;;;;;;5090328;27;46977;-70
2022/07/22 00:13:43;;;;;;;2.93;2.93;;;25.00;68.00;;;;;;5108834;27;43423;-69
2022/07/22 00:16:11;;;;;;;2.90;2.90;;;24.90;67.30;;;;;;5108438;27;43427;-70
2022/07/22 00:18:39;;;;;;;2.88;2.78;;;25.00;67.50;;;;;;5109631;27;43991;-70
2022/07/22 00:21:08;;;;;;;2.78;2.78;;;24.90;67.40;;;;;;5090534;27;43960;-69
2022/07/22 00:23:38;;;;;;;2.90;2.90;;;24.90;67.50;;;;;;5108858;27;44003;-70
2022/07/22 00:26:06;;;;;;;3.07;3.07;;;24.90;67.90;;;;;;5109170;27;43365;-70
2022/07/22 00:28:34;;;;;;;3.50;3.40;;;24.90;68.70;;;;;;5109331;27;43580;-70
2022/07/22 00:31:02;;;;;;;3.05;3.05;;;24.90;68.50;;;;;;5109242;27;44010;-70
2022/07/22 00:33:30;;;;;;;3.00;3.00;;;25.00;68.10;;;;;;5108872;27;43854;-69
2022/07/22 00:35:58;;;;;;;3.10;3.10;;;25.20;67.60;;;;;;5109222;27;43980;-70
2022/07/22 00:38:27;;;;;;;3.20;3.10;;;25.30;67.00;;;;;;5109525;27;43865;-70
2022/07/22 00:40:55;;;;;;;3.20;3.20;;;25.50;66.60;;;;;;5083853;28;46132;-69
2022/07/22 00:43:23;;;;;;;3.10;3.10;;;25.60;66.10;;;;;;5070614;28;43995;-70
2022/07/22 00:45:52;;;;;;;3.40;3.30;;;25.80;65.60;;;;;;5089082;27;43980;-70
2022/07/22 00:48:20;;;;;;;2.72;2.72;;;25.90;65.10;;;;;;5089855;27;43925;-70
2022/07/22 00:50:48;;;;;;;3.08;3.08;;;26.00;64.60;;;;;;5070625;28;44131;-70
2022/07/22 00:53:16;;;;;;;2.70;2.70;;;26.10;64.30;;;;;;5089100;27;44051;-70
2022/07/22 00:55:45;;;;;;;3.38;3.35;;;26.10;64.00;;;;;;5088676;27;43956;-70
2022/07/22 00:58:13;;;;;;;2.97;2.97;;;26.10;64.20;;;;;;5070957;28;44134;-69
2022/07/22 01:00:41;;;;;;;3.20;3.20;;;25.90;64.40;;;;;;5089020;27;43951;-69
2022/07/22 01:03:09;;;;;;;3.20;3.10;;;25.70;64.80;;;;;;5088440;27;43954;-69
2022/07/22 01:05:37;;;;;;;2.95;2.95;;;25.60;65.30;;;;;;5088297;27;43293;-69
2022/07/22 01:08:06;;;;;;;3.03;3.03;;;25.40;65.80;;;;;;5088511;27;43935;-69
2022/07/22 01:10:34;;;;;;;3.10;3.10;;;25.30;66.10;;;;;;5088193;27;43919;-68
2022/07/22 01:13:03;;;;;;;3.03;3.03;;;25.20;66.50;;;;;;5087881;27;43987;-69
2022/07/22 01:15:33;;;;;;;2.90;2.80;;;25.10;66.70;;;;;;5069447;28;43958;-70
2022/07/22 01:18:01;;;;;;;3.10;3.00;;;25.00;67.00;;;;;;5091809;27;43550;-69
2022/07/22 01:20:31;;;;;;;3.00;3.00;;;25.00;67.20;;;;;;5062973;27;46899;-69
2022/07/22 01:22:59;;;;;;;3.27;3.27;;;25.00;67.40;;;;;;5081725;27;43985;-68
2022/07/22 01:25:27;;;;;;;2.80;2.70;;;24.90;67.40;;;;;;5087971;27;43903;-69
2022/07/22 01:27:55;;;;;;;3.33;3.23;;;24.90;67.50;;;;;;5069848;27;43898;-69
2022/07/22 01:30:24;;;;;;;2.95;2.95;;;24.90;67.60;;;;;;5075990;27;45324;-70
2022/07/22 01:32:52;;;;;;;3.13;3.10;;;24.80;67.60;;;;;;5107327;27;43958;-68
2022/07/22 01:35:20;;;;;;;3.30;3.30;;;24.80;68.40;;;;;;5088984;27;43958;-69
2022/07/22 01:37:49;;;;;;;3.00;3.00;;;24.80;68.60;;;;;;5108103;27;44078;-70
2022/07/22 01:40:18;;;;;;;3.40;3.30;;;24.90;68.40;;;;;;5088447;27;44710;-68
2022/07/22 01:42:47;;;;;;;3.10;3.10;;;25.00;68.10;;;;;;5088918;27;44060;-69
2022/07/22 01:45:15;;;;;;;3.23;3.23;;;25.10;67.60;;;;;;5107393;27;43467;-69
2022/07/22 01:47:44;;;;;;;3.10;3.10;;;25.30;67.20;;;;;;5089138;27;43857;-69
2022/07/22 01:50:12;;;;;;;3.10;3.00;;;25.40;66.70;;;;;;5088537;27;44091;-70
2022/07/22 01:52:40;;;;;;;3.10;3.00;;;25.60;66.10;;;;;;5088393;27;43452;-70
2022/07/22 01:55:11;;;;;;;3.33;3.22;;;25.70;65.60;;;;;;5080384;27;43866;-70
2022/07/22 01:57:39;;;;;;;3.25;3.22;;;25.90;65.20;;;;;;5088953;27;43963;-70
2022/07/22 02:00:17;;;;;;;3.00;2.95;;;26.00;64.80;;;;;;5088705;27;44287;-70
2022/07/22 02:02:46;;;;;;;3.05;3.00;;;26.10;64.40;;;;;;5088563;27;46383;-68
2022/07/22 02:05:16;;;;;;;3.00;3.00;;;26.20;64.90;;;;;;5088416;27;43446;-69
2022/07/22 02:07:44;;;;;;;2.97;2.97;;;26.20;63.80;;;;;;5088554;27;43996;-69
2022/07/22 02:10:13;;;;;;;3.50;3.40;;;26.10;63.70;;;;;;5087980;27;46153;-69
2022/07/22 02:12:42;;;;;;;3.15;3.15;;;26.00;64.20;;;;;;5088706;27;45171;-70
2022/07/22 02:15:11;;;;;;;3.35;3.33;;;25.80;64.50;;;;;;5088390;27;43943;-69
2022/07/22 02:17:40;;;;;;;3.17;3.17;;;25.60;64.90;;;;;;5088777;27;43900;-69
2022/07/22 02:20:09;;;;;;;2.90;2.90;;;25.50;65.60;;;;;;5088030;27;47114;-69
2022/07/22 02:22:37;;;;;;;3.05;3.05;;;25.30;66.00;;;;;;5087844;27;44398;-69
2022/07/22 02:25:08;;;;;;;3.30;3.30;;;25.20;66.40;;;;;;5088173;27;43423;-69
2022/07/22 02:27:37;;;;;;;2.97;2.97;;;25.10;66.70;;;;;;5088633;27;43920;-70
2022/07/22 02:30:07;;;;;;;3.15;3.15;;;25.00;66.90;;;;;;5088063;27;44036;-69
2022/07/22 02:32:36;;;;;;;2.92;2.92;;;25.00;67.20;;;;;;5087954;27;43972;-69
2022/07/22 02:35:05;;;;;;;3.03;3.03;;;25.00;67.40;;;;;;5087828;27;43995;-69
2022/07/22 02:37:34;;;;;;;3.00;3.00;;;24.90;67.40;;;;;;5088461;27;43945;-70
2022/07/22 02:40:03;;;;;;;3.10;3.10;;;24.90;67.60;;;;;;5090935;27;45323;-69
2022/07/22 02:42:31;;;;;;;3.33;3.33;;;24.80;67.50;;;;;;5090929;27;43457;-69
2022/07/22 02:45:01;;;;;;;2.93;2.93;;;24.80;68.40;;;;;;5091375;27;43462;-69
2022/07/22 02:47:29;;;;;;;3.30;3.30;;;24.80;67.70;;;;;;5091985;27;43531;-69
2022/07/22 02:49:58;;;;;;;3.13;3.13;;;24.80;67.90;;;;;;5091253;27;45878;-69
2022/07/22 02:52:27;;;;;;;3.80;3.70;;;24.80;68.60;;;;;;5091288;27;43889;-69
2022/07/22 02:54:55;;;;;;;3.10;3.10;;;24.80;68.70;;;;;;5091212;27;43458;-69
2022/07/22 02:57:23;;;;;;;3.47;3.37;;;24.90;68.40;;;;;;5091717;27;44127;-69
2022/07/22 02:59:51;;;;;;;3.40;3.40;;;25.00;67.90;;;;;;5091395;27;45786;-69
2022/07/22 03:02:21;;;;;;;3.67;3.57;;;25.20;67.50;;;;;;5091545;27;44364;-69
2022/07/22 03:04:49;;;;;;;3.80;3.70;;;25.30;66.90;;;;;;5091515;27;43362;-70
2022/07/22 03:07:17;;;;;;;3.40;3.40;;;25.50;66.50;;;;;;5110354;27;43929;-69
2022/07/22 03:09:45;;;;;;;3.13;3.10;;;25.60;65.90;;;;;;5091073;27;44753;-69
2022/07/22 03:12:13;;;;;;;3.60;3.50;;;25.70;65.40;;;;;;5091259;27;43921;-70
2022/07/22 03:14:41;;;;;;;3.40;3.30;;;25.90;65.10;;;;;;5091049;27;43924;-70
2022/07/22 03:17:09;;;;;;;3.17;3.17;;;26.00;64.70;;;;;;5090976;27;43457;-70
2022/07/22 03:19:39;;;;;;;3.47;3.38;;;26.10;64.50;;;;;;5090819;27;44031;-69
2022/07/22 03:22:08;;;;;;;3.92;3.83;;;26.10;64.10;;;;;;5090673;27;44977;-69
2022/07/22 03:24:36;;;;;;;3.53;3.42;;;26.00;64.30;;;;;;5109963;27;43921;-70
2022/07/22 03:27:05;;;;;;;3.30;3.30;;;25.80;64.50;;;;;;5109948;27;43454;-69
2022/07/22 03:29:33;;;;;;;3.10;3.00;;;25.60;64.70;;;;;;5064550;28;45562;-71
2022/07/22 03:32:01;;;;;;;3.30;3.20;;;25.50;65.50;;;;;;5082921;27;43420;-69
2022/07/22 03:34:40;;;;;;;3.35;3.25;;;25.30;65.90;;;;;;5080763;27;43901;-69
2022/07/22 03:37:09;;;;;;;3.20;3.20;;;25.20;66.40;;;;;;5071200;27;43909;-70
2022/07/22 03:39:37;;;;;;;3.10;3.10;;;25.10;66.60;;;;;;5071035;27;45626;-69
2022/07/22 03:42:05;;;;;;;3.13;3.13;;;25.00;66.90;;;;;;5089215;27;43968;-69
2022/07/22 03:44:40;;;;;;;3.58;3.47;;;25.00;67.10;;;;;;5071107;27;43983;-69
2022/07/22 03:47:08;;;;;;;3.80;3.70;;;24.90;67.30;;;;;;5071248;27;43994;-69
2022/07/22 03:49:36;;;;;;;3.45;3.35;;;24.90;67.40;;;;;;5078057;27;46509;-69
2022/07/22 03:52:07;;;;;;;3.60;3.45;;;24.90;67.50;;;;;;5090585;27;43900;-69
2022/07/22 03:54:36;;;;;;;3.65;3.55;;;24.80;67.60;;;;;;5081355;27;43382;-69
2022/07/22 03:57:04;;;;;;;3.92;3.83;;;24.80;68.20;;;;;;5089925;27;43987;-69
2022/07/22 03:59:32;;;;;;;4.53;4.32;;;24.80;68.50;;;;;;5070815;27;44085;-70
2022/07/22 04:02:03;;;;;;;4.37;4.07;;;24.80;68.30;;;;;;5070961;27;43688;-70
2022/07/22 04:04:31;;;;;;;4.77;4.47;;;25.00;68.10;;;;;;5071188;27;43790;-70
2022/07/22 04:06:59;;;;;;;4.50;4.30;;;25.10;67.70;;;;;;5081188;27;43983;-69
2022/07/22 04:09:35;;;;;;;4.97;4.77;;;25.20;67.30;;;;;;5090168;27;46369;-70
2022/07/22 04:12:04;;;;;;;4.32;4.13;;;25.30;66.80;;;;;;5090435;27;44004;-70
2022/07/22 04:14:38;;;;;;;4.32;4.13;;;25.50;66.30;;;;;;5071726;28;43450;-69
2022/07/22 04:17:06;;;;;;;4.70;4.40;;;25.60;65.80;;;;;;5070958;28;43970;-69
2022/07/22 04:19:42;;;;;;;4.78;4.47;;;25.70;65.30;;;;;;5070655;28;45798;-69
2022/07/22 04:22:25;;;;;;;4.20;4.00;;;25.90;64.80;;;;;;5066031;27;44839;-70
2022/07/22 04:24:57;;;;;;;3.88;3.75;;;26.00;64.40;;;;;;5070646;27;44061;-69
2022/07/22 04:27:25;;;;;;;3.80;3.70;;;26.10;64.10;;;;;;5071021;27;43967;-69
2022/07/22 04:29:53;;;;;;;4.65;4.35;;;26.10;63.80;;;;;;5070431;27;45519;-68
2022/07/22 04:32:21;;;;;;;4.80;4.55;;;26.10;63.80;;;;;;5070665;27;44101;-69
2022/07/22 04:34:50;;;;;;;4.82;4.47;;;25.90;64.30;;;;;;5086417;27;43881;-69
2022/07/22 04:37:18;;;;;;;4.38;4.18;;;25.70;64.60;;;;;;5090300;27;43916;-69
2022/07/22 04:39:46;;;;;;;4.32;4.13;;;25.60;65.00;;;;;;5089526;27;44100;-70
2022/07/22 04:42:16;;;;;;;3.83;3.72;;;25.40;65.50;;;;;;5107735;27;43346;-70
2022/07/22 04:44:46;;;;;;;4.50;4.30;;;25.30;65.80;;;;;;5089585;27;43469;-69
2022/07/22 04:47:15;;;;;;;3.88;3.70;;;25.20;66.30;;;;;;5108747;27;44247;-69
2022/07/22 04:49:44;;;;;;;4.40;4.20;;;25.10;66.60;;;;;;5088151;27;44090;-68
2022/07/22 04:52:12;;;;;;;4.28;4.10;;;25.00;66.90;;;;;;5089500;27;43373;-70
2022/07/22 04:54:46;;;;;;;4.80;4.60;;;25.00;67.00;;;;;;5077953;28;43415;-69
2022/07/22 04:57:16;;;;;;;4.82;4.43;;;24.90;67.20;;;;;;5094377;27;43928;-70
2022/07/22 04:59:44;;;;;;;4.20;4.00;;;24.90;67.30;;;;;;5089517;27;46026;-69
2022/07/22 05:02:13;;;;;;;4.35;4.15;;;24.80;67.30;;;;;;5089083;27;43966;-70
2022/07/22 05:04:42;;;;;;;4.57;4.28;;;24.80;67.50;;;;;;5070553;28;43952;-69
2022/07/22 05:07:10;;;;;;;4.65;4.25;;;24.80;67.50;;;;;;5062306;28;44040;-68
2022/07/22 05:09:38;;;;;;;4.80;4.43;;;24.80;67.60;;;;;;5069899;28;45509;-70
2022/07/22 05:12:10;;;;;;;4.80;4.50;;;24.80;67.70;;;;;;5069848;28;43410;-70
2022/07/22 05:14:40;;;;;;;4.73;4.43;;;24.70;68.30;;;;;;5093105;27;44014;-69
2022/07/22 05:17:10;;;;;;;5.17;4.77;;;24.80;68.60;;;;;;5049800;28;43472;-69
2022/07/22 05:19:54;;;;;;;4.40;4.10;;;24.80;68.40;;;;;;5067334;27;43897;-70
2022/07/22 05:22:22;;;;;;;4.83;4.53;;;25.00;68.00;;;;;;5089057;27;44171;-69
2022/07/22 05:24:51;;;;;;;4.80;4.50;;;25.10;67.50;;;;;;5073593;27;43782;-69
2022/07/22 05:27:19;;;;;;;4.60;4.30;;;25.20;67.00;;;;;;5070416;27;43900;-70
2022/07/22 05:29:49;;;;;;;4.88;4.57;;;25.40;66.50;;;;;;5069677;27;46015;-70
2022/07/22 05:32:17;;;;;;;4.70;4.40;;;25.50;66.00;;;;;;5069622;27;43942;-69
2022/07/22 05:34:46;;;;;;;5.15;4.75;;;25.60;65.60;;;;;;5069724;27;44012;-69
2022/07/22 05:37:15;;;;;;;4.85;4.47;;;25.80;65.10;;;;;;5069540;27;43453;-70
2022/07/22 05:39:43;;;;;;;4.65;4.35;;;25.90;64.60;;;;;;5079485;27;45651;-69
2022/07/22 05:42:12;;;;;;;4.60;4.40;;;26.00;64.30;;;;;;5107279;27;43987;-69
2022/07/22 05:44:40;;;;;;;4.55;4.28;;;26.00;64.20;;;;;;5088817;27;44019;-69
2022/07/22 05:47:09;;;;;;;4.43;4.20;;;25.90;64.60;;;;;;5089083;27;44026;-70
2022/07/22 05:49:37;;;;;;;4.70;4.40;;;25.70;64.90;;;;;;5072159;28;45824;-69
2022/07/22 05:52:12;;;;;;;4.43;4.22;;;25.50;65.30;;;;;;5069135;28;43988;-69
2022/07/22 05:54:42;;;;;;;4.28;4.10;;;25.30;65.80;;;;;;5069411;28;43374;-70
2022/07/22 05:57:10;;;;;;;3.93;3.83;;;25.20;66.30;;;;;;5069372;28;43874;-69
2022/07/22 05:59:39;;;;;;;4.20;4.03;;;25.10;66.60;;;;;;5073870;27;44053;-70
2022/07/22 06:02:08;;;;;;;3.92;3.83;;;25.00;67.00;;;;;;5088718;27;45771;-70
2022/07/22 06:04:41;;;;;;;4.40;4.18;;;24.90;67.20;;;;;;5069689;28;43353;-69
2022/07/22 06:07:09;;;;;;;4.20;4.00;;;24.90;67.40;;;;;;5069329;28;43506;-70
2022/07/22 06:09:40;;;;;;;4.20;3.92;;;24.80;67.50;;;;;;5088496;27;46522;-69
2022/07/22 06:12:11;;;;;;;4.47;4.27;;;24.80;67.60;;;;;;5075045;27;44618;-70
2022/07/22 06:14:39;;;;;;;4.28;4.13;;;24.80;67.80;;;;;;5080386;27;43935;-70
2022/07/22 06:17:09;;;;;;;3.83;3.73;;;24.70;67.80;;;;;;5062669;28;43585;-70
2022/07/22 06:19:38;;;;;;;4.50;4.30;;;24.70;67.80;;;;;;5069084;27;45657;-69
2022/07/22 06:22:06;;;;;;;4.53;4.20;;;24.70;68.30;;;;;;5069102;27;45204;-70
2022/07/22 06:24:34;;;;;;;4.05;3.88;;;24.70;68.70;;;;;;5069015;27;43804;-70
2022/07/22 06:27:02;;;;;;;4.30;4.10;;;24.70;68.50;;;;;;5075927;27;44022;-69
2022/07/22 06:29:31;;;;;;;4.40;4.20;;;24.80;69.10;;;;;;5088230;27;46781;-70
2022/07/22 06:31:59;;;;;;;4.20;4.00;;;25.00;68.00;;;;;;5087966;27;44738;-68
2022/07/22 06:34:29;;;;;;;4.13;4.03;;;25.10;67.60;;;;;;5087812;27;44062;-69
2022/07/22 06:37:03;;;;;;;3.70;3.60;;;25.20;67.00;;;;;;5088551;27;44016;-70
2022/07/22 06:39:31;;;;;;;4.20;4.00;;;25.30;66.40;;;;;;5098396;27;43920;-70
2022/07/22 06:42:15;;;;;;;4.00;3.90;;;25.50;65.90;;;;;;5071996;27;45582;-68
2022/07/22 06:45:03;;;;;;;3.83;3.72;;;25.60;65.60;;;;;;5091850;27;43403;-70
2022/07/22 06:47:51;;;;;;;3.90;3.80;;;25.70;65.10;;;;;;5064649;27;44258;-69
2022/07/22 06:50:21;;;;;;;4.10;4.00;;;25.90;64.80;;;;;;5068657;27;46474;-69
2022/07/22 06:52:53;;;;;;;4.03;3.83;;;26.00;64.40;;;;;;5068178;27;44713;-69
2022/07/22 06:55:21;;;;;;;3.67;3.58;;;26.00;64.20;;;;;;5085340;27;43995;-69
2022/07/22 06:57:59;;;;;;;3.40;3.30;;;25.90;64.30;;;;;;5087817;27;43997;-69
2022/07/22 07:00:28;;;;;;;4.10;4.00;;;25.80;64.80;;;;;;5082920;28;44970;-70
2022/07/22 07:03:15;;;;;;;3.78;3.67;;;25.60;65.10;;;;;;5076509;27;43975;-69
2022/07/22 07:06:07;;;;;;;3.60;3.50;;;25.40;65.80;;;;;;5084955;27;43504;-69
2022/07/22 07:08:55;;;;;;;3.70;3.60;;;25.20;66.20;;;;;;5088310;27;44022;-70
2022/07/22 07:11:25;;;;;;;3.45;3.35;;;25.10;66.70;;;;;;5044581;28;46020;-69
2022/07/22 07:13:54;;;;;;;3.90;3.70;;;25.00;67.00;;;;;;5063787;27;44469;-70
2022/07/22 07:16:22;;;;;;;3.58;3.47;;;24.90;67.30;;;;;;5087381;27;43313;-67
2022/07/22 07:18:50;;;;;;;3.80;3.70;;;24.80;67.50;;;;;;5088004;27;43458;-68
2022/07/22 07:21:20;;;;;;;3.87;3.77;;;24.80;67.60;;;;;;5080927;27;47135;-70
2022/07/22 07:23:48;;;;;;;3.33;3.22;;;24.80;67.90;;;;;;5068447;27;44703;-69
2022/07/22 07:26:16;;;;;;;3.83;3.67;;;24.70;67.90;;;;;;5071776;27;43911;-70
2022/07/22 07:28:44;;;;;;;3.45;3.35;;;24.70;68.00;;;;;;5090272;27;44039;-69
2022/07/22 07:31:28;;;;;;;3.43;3.30;;;24.70;68.00;;;;;;5071381;27;45800;-69
2022/07/22 07:33:58;;;;;;;3.80;3.70;;;24.60;68.00;;;;;;5081447;27;43915;-69
2022/07/22 07:36:28;;;;;;;3.47;3.37;;;24.60;68.10;;;;;;5090967;27;43956;-70
2022/07/22 07:38:56;;;;;;;3.50;3.40;;;24.60;68.50;;;;;;5091338;27;44011;-70
2022/07/22 07:41:25;;;;;;;3.57;3.47;;;24.60;68.90;;;;;;5098605;27;44669;-68
2022/07/22 07:43:53;;;;;;;3.93;3.83;;;24.70;68.90;;;;;;5071183;28;45927;-68
2022/07/22 07:46:21;;;;;;;3.50;3.40;;;24.70;68.50;;;;;;5071666;28;43373;-69
2022/07/22 07:48:51;;;;;;;3.67;3.57;;;24.90;68.30;;;;;;5072133;28;43843;-69
2022/07/22 07:51:19;;;;;;;4.07;3.87;;;25.00;67.70;;;;;;5071538;28;46297;-69
2022/07/22 07:53:48;;;;;;;3.53;3.43;;;25.10;67.20;;;;;;5088475;27;43889;-70
2022/07/22 07:56:17;;;;;;;3.77;3.67;;;25.30;66.70;;;;;;5090928;27;44005;-69
2022/07/22 07:58:46;;;;;;;3.45;3.35;;;25.40;66.20;;;;;;5090976;27;44094;-70
2022/07/22 08:01:35;;;;;;;3.50;3.40;;;25.60;65.80;;;;;;5090626;27;44102;-69
2022/07/22 08:04:23;;;;;;;3.40;3.30;;;25.70;65.40;;;;;;5090636;27;43997;-69
2022/07/22 08:07:06;;;;;;;3.43;3.33;;;25.80;65.00;;;;;;5071940;28;43954;-69
2022/07/22 08:09:37;;;;;;;3.30;3.20;;;25.80;64.70;;;;;;5071348;28;44042;-71
2022/07/22 08:12:11;;;;;;;3.80;3.70;;;25.70;65.00;;;;;;5070793;28;44046;-69
2022/07/22 08:15:11;;;;;;;3.40;3.30;;;25.60;65.40;;;;;;5038676;27;43874;-69
2022/07/22 08:17:48;;;;;;;3.10;3.00;;;25.40;65.90;;;;;;5071084;28;43440;-70
2022/07/22 08:20:16;;;;;;;3.57;3.47;;;25.20;66.30;;;;;;5076573;27;43991;-69
2022/07/22 08:22:49;;;;;;;3.10;3.00;;;25.10;67.50;;;;;;5090680;27;45779;-69
2022/07/22 08:25:18;;;;;;;3.25;3.15;;;25.00;67.10;;;;;;5090229;27;45603;-69
2022/07/22 08:27:46;;;;;;;3.30;3.20;;;24.90;67.40;;;;;;5090332;27;43967;-69
2022/07/22 08:30:15;;;;;;;3.10;3.00;;;24.80;67.50;;;;;;5070853;28;44111;-68
2022/07/22 08:32:43;;;;;;;3.47;3.37;;;24.80;67.80;;;;;;5060426;28;44767;-69
2022/07/22 08:35:11;;;;;;;3.40;3.30;;;24.70;67.90;;;;;;5082325;27;43997;-69
2022/07/22 08:37:40;;;;;;;3.10;3.10;;;24.70;68.00;;;;;;5070288;27;44001;-69
2022/07/22 08:40:10;;;;;;;3.27;3.20;;;24.70;68.10;;;;;;5082676;27;43646;-68
2022/07/22 08:42:40;;;;;;;3.40;3.30;;;24.60;68.40;;;;;;5064017;27;45955;-69
2022/07/22 08:45:09;;;;;;;3.43;3.33;;;24.60;69.00;;;;;;5077250;27;45000;-70
2022/07/22 08:47:45;;;;;;;3.17;3.07;;;24.60;69.00;;;;;;5089922;27;43856;-70
2022/07/22 08:50:23;;;;;;;3.40;3.30;;;24.70;68.90;;;;;;5109114;27;44070;-69
2022/07/22 08:53:13;;;;;;;2.80;2.80;;;24.80;68.60;;;;;;5089764;27;44115;-69
2022/07/22 08:55:45;;;;;;;3.10;3.00;;;24.90;68.10;;;;;;5063834;28;44075;-69
2022/07/22 08:58:15;;;;;;;3.23;3.13;;;25.00;67.70;;;;;;5083761;27;43984;-69
2022/07/22 09:00:43;;;;;;;3.10;3.00;;;25.10;67.20;;;;;;5089852;27;44302;-69
2022/07/22 09:03:20;;;;;;;3.35;3.25;;;25.30;66.60;;;;;;5089637;27;47132;-69
2022/07/22 09:05:49;;;;;;;3.10;3.00;;;25.50;66.30;;;;;;5089513;27;43944;-69
2022/07/22 09:08:18;;;;;;;3.22;3.13;;;25.60;65.90;;;;;;5089581;27;44169;-70
2022/07/22 09:10:59;;;;;;;3.40;3.30;;;25.70;65.50;;;;;;5089929;27;44008;-68
2022/07/22 09:14:00;;;;;;;3.38;3.28;;;25.80;65.20;;;;;;5107628;27;44072;-69
2022/07/22 09:17:08;;;;;;;2.95;2.90;;;25.90;64.90;;;;;;5101913;27;44260;-69
2022/07/22 09:19:42;;;;;;;3.05;3.00;;;25.70;65.20;;;;;;5070966;27;43987;-68
2022/07/22 09:22:38;;;;;;;3.10;3.05;;;25.60;65.60;;;;;;5088793;27;43461;-70
2022/07/22 09:25:27;;;;;;;2.90;2.90;;;25.30;66.00;;;;;;5069778;28;44889;-69
2022/07/22 09:28:15;;;;;;;2.60;2.60;;;25.20;66.50;;;;;;5085302;27;43567;-69
2022/07/22 09:31:26;;;;;;;3.10;3.10;;;25.00;67.00;;;;;;5065446;27;43439;-69
2022/07/22 09:34:02;;;;;;;3.10;3.10;;;24.90;68.30;;;;;;5070075;28;44056;-69
2022/07/22 09:36:31;;;;;;;3.08;2.97;;;24.80;67.60;;;;;;5069528;28;44062;-69
2022/07/22 09:38:59;;;;;;;2.60;2.60;;;24.80;67.90;;;;;;5069394;28;43514;-69
2022/07/22 09:41:29;;;;;;;2.80;2.80;;;24.70;68.00;;;;;;5069246;28;44023;-70
2022/07/22 09:43:57;;;;;;;2.60;2.60;;;24.70;68.20;;;;;;5070162;28;44051;-69
2022/07/22 09:46:37;;;;;;;2.60;2.60;;;24.60;68.20;;;;;;5088131;27;43768;-69
2022/07/22 09:49:33;;;;;;;2.90;2.90;;;24.60;68.40;;;;;;5087038;27;43978;-69
2022/07/22 09:52:20;;;;;;;2.90;2.90;;;24.60;68.40;;;;;;5084958;27;44014;-70
2022/07/22 09:55:15;;;;;;;2.93;2.90;;;24.60;68.50;;;;;;5083925;27;44298;-69
2022/07/22 09:57:43;;;;;;;2.80;2.70;;;24.50;68.50;;;;;;5069294;27;43989;-69
2022/07/22 10:00:12;;;;;;;2.93;2.90;;;24.50;69.10;;;;;;5078249;27;44030;-70
2022/07/22 10:02:55;;;;;;;3.30;3.20;;;24.60;69.50;;;;;;5089094;27;43402;-69
2022/07/22 10:05:25;;;;;;;2.90;2.90;;;24.70;69.30;;;;;;5089393;27;43916;-69
2022/07/22 10:07:56;;;;;;;2.77;2.77;;;24.80;68.90;;;;;;5088806;27;43974;-69
2022/07/22 10:10:25;;;;;;;2.80;2.80;;;24.90;68.30;;;;;;5088899;27;44834;-69
2022/07/22 10:12:54;;;;;;;3.00;2.90;;;25.00;67.90;;;;;;5076936;28;43991;-69
2022/07/22 10:15:24;;;;;;;2.70;2.70;;;25.20;67.50;;;;;;5075399;27;44035;-70
2022/07/22 10:18:06;;;;;;;2.57;2.57;;;25.30;67.00;;;;;;5081875;27;45034;-69
2022/07/22 10:20:36;;;;;;;2.57;2.57;;;25.40;66.40;;;;;;5088343;27;44058;-69
2022/07/22 10:23:04;;;;;;;2.60;2.60;;;25.60;66.10;;;;;;5106891;27;43836;-69
2022/07/22 10:25:49;;;;;;;2.90;2.90;;;25.60;65.80;;;;;;5088800;27;43969;-69
2022/07/22 10:28:22;;;;;;;2.65;2.65;;;25.70;65.60;;;;;;5088402;27;46942;-69
2022/07/22 10:30:50;;;;;;;2.75;2.75;;;25.60;65.80;;;;;;5107027;27;43940;-69
2022/07/22 10:33:20;;;;;;;2.70;2.60;;;25.50;66.10;;;;;;5107134;27;43970;-69
2022/07/22 10:35:54;;;;;;;2.90;2.80;;;25.30;66.30;;;;;;5107178;27;43991;-69
2022/07/22 10:38:22;;;;;;;2.70;2.60;;;25.20;66.60;;;;;;5088265;27;44078;-69
2022/07/22 10:40:52;;;;;;;2.72;2.72;;;25.10;67.00;;;;;;5106164;27;44169;-69
2022/07/22 10:43:22;;;;;;;2.70;2.60;;;25.00;68.10;;;;;;5107003;27;43898;-68
2022/07/22 10:45:51;;;;;;;2.60;2.60;;;24.90;67.70;;;;;;5107386;27;43970;-69
2022/07/22 10:48:25;;;;;;;2.60;2.50;;;24.80;67.90;;;;;;5106678;27;44074;-71
2022/07/22 10:50:56;;;;;;;2.83;2.83;;;24.70;68.00;;;;;;5047140;27;44875;-69
2022/07/22 10:53:26;;;;;;;2.50;2.50;;;24.70;68.10;;;;;;5087581;27;43343;-69
2022/07/22 10:56:05;;;;;;;2.60;2.60;;;24.70;68.30;;;;;;5095314;27;44158;-69
2022/07/22 10:58:53;;;;;;;2.60;2.60;;;24.60;68.40;;;;;;5087908;27;46137;-69
2022/07/22 11:01:23;;;;;;;2.60;2.60;;;24.60;68.40;;;;;;5110349;27;43970;-69
2022/07/22 11:03:53;;;;;;;2.37;2.37;;;24.60;68.50;;;;;;5110519;27;43467;-69
2022/07/22 11:06:23;;;;;;;2.80;2.80;;;24.60;68.70;;;;;;5110772;27;43940;-68
2022/07/22 11:08:52;;;;;;;2.60;2.60;;;24.60;69.30;;;;;;5110238;27;43991;-69
2022/07/22 11:11:34;;;;;;;2.70;2.70;;;24.60;69.60;;;;;;5109948;27;43816;-68
2022/07/22 11:14:02;;;;;;;2.50;2.50;;;24.60;69.30;;;;;;5109916;27;44026;-69
2022/07/22 11:16:30;;;;;;;2.40;2.40;;;24.70;69.00;;;;;;5110572;27;44028;-69
2022/07/22 11:19:00;;;;;;;2.72;2.72;;;24.80;68.70;;;;;;5109953;27;43967;-70
2022/07/22 11:21:31;;;;;;;2.40;2.40;;;25.00;68.30;;;;;;5109924;27;44118;-70
2022/07/22 11:24:01;;;;;;;2.80;2.80;;;25.10;67.90;;;;;;5109829;27;43948;-69
2022/07/22 11:26:35;;;;;;;2.78;2.72;;;25.20;67.40;;;;;;5110266;27;43922;-69
2022/07/22 11:29:03;;;;;;;2.40;2.40;;;25.30;66.80;;;;;;5081203;28;47192;-69
2022/07/22 11:31:31;;;;;;;2.43;2.43;;;25.50;66.50;;;;;;5071642;27;45169;-70
2022/07/22 11:34:08;;;;;;;2.40;2.40;;;25.60;66.20;;;;;;5090369;27;43343;-70
2022/07/22 11:36:37;;;;;;;2.38;2.38;;;25.70;65.80;;;;;;5072048;28;44005;-69
2022/07/22 11:39:06;;;;;;;2.72;2.63;;;25.70;65.40;;;;;;5089784;27;44753;-69
2022/07/22 11:41:34;;;;;;;2.43;2.43;;;25.70;65.60;;;;;;5089299;27;43936;-69
2022/07/22 11:44:02;;;;;;;2.30;2.30;;;25.60;66.60;;;;;;5089950;27;43992;-70
2022/07/22 11:46:35;;;;;;;2.35;2.35;;;25.40;66.20;;;;;;5090191;27;43983;-70
2022/07/22 11:49:03;;;;;;;2.55;2.45;;;25.30;66.40;;;;;;5076924;27;45864;-70
2022/07/22 11:51:33;;;;;;;2.45;2.38;;;25.10;66.80;;;;;;5109446;27;43450;-69
2022/07/22 11:54:01;;;;;;;2.50;2.50;;;25.00;67.20;;;;;;5077595;27;44029;-70
2022/07/22 11:56:29;;;;;;;2.30;2.30;;;25.00;67.60;;;;;;5109655;27;43958;-69
2022/07/22 11:58:57;;;;;;;2.53;2.53;;;24.80;67.80;;;;;;5109134;27;43966;-69
2022/07/22 12:01:28;;;;;;;2.30;2.30;;;24.80;68.10;;;;;;5084935;28;45344;-70
2022/07/22 12:03:57;;;;;;;2.58;2.58;;;24.70;68.20;;;;;;5109459;27;44005;-69
2022/07/22 12:06:27;;;;;;;2.40;2.40;;;24.70;68.30;;;;;;5083176;27;44015;-69
2022/07/22 12:08:58;;;;;;;2.63;2.50;;;24.60;68.40;;;;;;5083081;27;44010;-69
2022/07/22 12:11:26;;;;;;;2.60;2.60;;;24.60;68.50;;;;;;5082555;27;43889;-69
2022/07/22 12:13:55;;;;;;;2.37;2.37;;;24.60;68.60;;;;;;5089641;27;43980;-69
2022/07/22 12:16:25;;;;;;;2.30;2.30;;;24.60;68.70;;;;;;5090012;27;44048;-70
2022/07/22 12:18:57;;;;;;;2.33;2.33;;;24.60;68.70;;;;;;5089177;27;45387;-69
2022/07/22 12:21:26;;;;;;;2.30;2.30;;;24.50;69.30;;;;;;5078857;27;45126;-69
2022/07/22 12:23:57;;;;;;;2.50;2.50;;;24.60;69.60;;;;;;5109192;27;43860;-70
2022/07/22 12:26:43;;;;;;;2.30;2.30;;;24.60;69.40;;;;;;5094198;27;43951;-69
2022/07/22 12:29:15;;;;;;;2.50;2.40;;;24.70;69.20;;;;;;5081532;27;44215;-69
2022/07/22 12:31:47;;;;;;;2.73;2.70;;;24.80;68.70;;;;;;5103503;27;44409;-69
2022/07/22 12:34:15;;;;;;;2.63;2.63;;;25.00;68.30;;;;;;5089098;27;43952;-69
2022/07/22 12:36:46;;;;;;;2.53;2.53;;;25.10;67.80;;;;;;5094987;27;43815;-69
2022/07/22 12:39:17;;;;;;;2.40;2.40;;;25.20;67.30;;;;;;5089916;27;45895;-70
2022/07/22 12:41:47;;;;;;;2.50;2.50;;;25.30;67.00;;;;;;5088360;27;44476;-69
2022/07/22 12:44:19;;;;;;;2.50;2.50;;;25.50;66.60;;;;;;5082411;27;43351;-69
2022/07/22 12:46:48;;;;;;;2.50;2.50;;;25.60;66.00;;;;;;5090285;27;44297;-70
2022/07/22 12:49:18;;;;;;;2.50;2.50;;;25.70;65.70;;;;;;5095474;27;43968;-69
2022/07/22 12:52:08;;;;;;;2.40;2.40;;;25.70;65.50;;;;;;5088667;27;43962;-68
2022/07/22 12:54:37;;;;;;;2.47;2.47;;;25.60;65.90;;;;;;5088821;27;43945;-70
2022/07/22 12:57:06;;;;;;;2.47;2.38;;;25.40;66.10;;;;;;5089136;27;43829;-70
2022/07/22 12:59:34;;;;;;;2.35;2.35;;;25.30;66.40;;;;;;5070145;28;45824;-69
2022/07/22 13:02:02;;;;;;;2.60;2.50;;;25.10;66.70;;;;;;5088625;27;43366;-70
2022/07/22 13:04:31;;;;;;;2.40;2.40;;;25.00;67.10;;;;;;5106264;27;43908;-68
2022/07/22 13:06:58;;;;;;;2.27;2.27;;;24.90;67.40;;;;;;5104226;27;43895;-69
2022/07/22 13:09:27;;;;;;;2.45;2.45;;;24.80;67.70;;;;;;5099772;27;43942;-69